Time;durP1;ratioP1;P1;durP2;ratioP2;P2;SDS_P1;SDS_P2;PMS_P1;PMS_P2;Temp;Humidity;BMP_temperature;BMP_pressure;BME280_temperature;BME280_humidity;BME280_pressure;Samples;Min_cycle;Max_cycle;Signal;HPM_P1;HPM_P2
2022/09/04 00:02:27;;;;;;;4.93;3.25;;;14.10;99.90;;;;;;5039292;28;20249;-72
2022/09/04 00:04:59;;;;;;;4.18;3.88;;;14.10;99.90;;;;;;5030097;28;20201;-72
2022/09/04 00:07:56;;;;;;;3.47;3.25;;;14.20;99.90;;;;;;5039107;28;20209;-71
2022/09/04 00:10:37;;;;;;;3.33;3.08;;;14.20;99.90;;;;;;5035379;28;20208;-72
2022/09/04 00:13:06;;;;;;;3.47;3.20;;;14.30;99.90;;;;;;5040062;28;20176;-72
2022/09/04 00:15:38;;;;;;;4.03;3.50;;;14.20;99.90;;;;;;5035438;28;20224;-72
2022/09/04 00:18:25;;;;;;;3.90;3.60;;;14.20;99.90;;;;;;5033509;28;20208;-72
2022/09/04 00:21:13;;;;;;;4.30;4.00;;;14.20;99.90;;;;;;5035498;28;20717;-72
2022/09/04 00:24:04;;;;;;;4.35;3.80;;;14.10;99.90;;;;;;5023271;28;20566;-72
2022/09/04 00:26:44;;;;;;;3.95;3.65;;;14.10;99.90;;;;;;5029297;28;20169;-72
2022/09/04 00:29:21;;;;;;;3.78;3.53;;;14.10;99.90;;;;;;5037174;28;20722;-72
2022/09/04 00:31:54;;;;;;;3.85;3.55;;;14.00;99.90;;;;;;5040394;28;20184;-72
2022/09/04 00:34:23;;;;;;;5.57;3.53;;;14.00;99.90;;;;;;5035759;28;20270;-72
2022/09/04 00:36:54;;;;;;;4.03;3.15;;;13.90;99.90;;;;;;5039118;28;20683;-72
2022/09/04 00:39:44;;;;;;;3.88;3.17;;;13.90;99.90;;;;;;5028425;28;20213;-72
2022/09/04 00:42:54;;;;;;;3.67;3.38;;;13.90;99.90;;;;;;5032460;28;20189;-72
2022/09/04 00:45:43;;;;;;;3.78;3.47;;;13.90;99.90;;;;;;5034278;28;20211;-71
2022/09/04 00:48:21;;;;;;;3.88;3.28;;;13.90;99.90;;;;;;5039330;28;20603;-72
2022/09/04 00:51:29;;;;;;;3.88;3.20;;;13.90;99.90;;;;;;5041961;28;20255;-72
2022/09/04 00:54:03;;;;;;;3.60;3.30;;;13.90;99.90;;;;;;5030480;28;20289;-72
2022/09/04 00:57:00;;;;;;;3.03;2.83;;;13.90;99.90;;;;;;5031474;28;20233;-72
2022/09/04 00:59:44;;;;;;;3.45;3.25;;;13.90;99.90;;;;;;5031878;28;20247;-73
2022/09/04 01:02:16;;;;;;;3.08;2.88;;;13.80;99.90;;;;;;5029695;28;20185;-71
2022/09/04 01:05:20;;;;;;;4.03;3.72;;;13.90;99.90;;;;;;5032782;28;20188;-71
2022/09/04 01:07:55;;;;;;;4.20;3.88;;;13.80;99.90;;;;;;5060541;28;20255;-71
2022/09/04 01:10:40;;;;;;;4.40;4.03;;;13.80;99.90;;;;;;5030282;28;20570;-71
2022/09/04 01:13:11;;;;;;;9.32;6.60;;;13.80;99.90;;;;;;5034106;28;20184;-71
2022/09/04 01:15:40;;;;;;;4.80;4.40;;;13.80;99.90;;;;;;5037522;28;20180;-71
2022/09/04 01:18:19;;;;;;;5.35;4.53;;;13.80;99.90;;;;;;5031448;28;20600;-71
2022/09/04 01:21:15;;;;;;;5.30;4.85;;;13.80;99.90;;;;;;5035923;28;20207;-72
2022/09/04 01:24:15;;;;;;;5.40;4.65;;;13.70;99.90;;;;;;5030086;28;20180;-72
2022/09/04 01:27:03;;;;;;;4.90;4.50;;;13.60;99.90;;;;;;5028136;28;20198;-72
2022/09/04 01:29:42;;;;;;;5.50;5.00;;;13.60;99.90;;;;;;5028943;28;20755;-71
2022/09/04 01:32:20;;;;;;;4.57;4.18;;;13.50;99.90;;;;;;5035261;28;20215;-71
2022/09/04 01:35:07;;;;;;;5.38;3.90;;;13.50;99.90;;;;;;5027297;28;20184;-71
2022/09/04 01:38:09;;;;;;;3.92;3.63;;;13.40;99.90;;;;;;5031962;28;20191;-71
2022/09/04 01:40:45;;;;;;;3.72;3.28;;;13.40;99.90;;;;;;5023911;28;20245;-72
2022/09/04 01:43:12;;;;;;;3.50;3.25;;;13.40;99.90;;;;;;5038055;28;20169;-72
2022/09/04 01:46:03;;;;;;;3.70;3.40;;;13.40;99.90;;;;;;5029927;28;20187;-72
2022/09/04 01:48:57;;;;;;;5.18;3.75;;;13.40;99.90;;;;;;5033321;28;20214;-72
2022/09/04 01:51:59;;;;;;;3.33;3.13;;;13.30;99.90;;;;;;5033753;28;20270;-73
2022/09/04 01:54:48;;;;;;;3.50;3.20;;;13.30;99.90;;;;;;5029091;28;20656;-75
2022/09/04 01:57:38;;;;;;;3.47;3.25;;;13.30;99.90;;;;;;5029627;28;20169;-73
2022/09/04 02:00:13;;;;;;;4.13;3.70;;;13.20;99.90;;;;;;5032289;28;20199;-73
2022/09/04 02:03:01;;;;;;;4.32;4.03;;;13.20;99.90;;;;;;5034899;28;20187;-73
2022/09/04 02:06:00;;;;;;;4.10;3.70;;;13.20;99.90;;;;;;5027068;28;20172;-72
2022/09/04 02:08:47;;;;;;;3.72;3.42;;;13.10;99.90;;;;;;5027896;28;20223;-71
2022/09/04 02:11:25;;;;;;;3.40;3.20;;;13.10;99.90;;;;;;5033713;28;20673;-72
2022/09/04 02:14:13;;;;;;;3.47;3.17;;;13.10;99.90;;;;;;5032806;28;20195;-72
2022/09/04 02:16:55;;;;;;;3.28;3.05;;;13.00;99.90;;;;;;5030794;28;20188;-72
2022/09/04 02:19:49;;;;;;;3.15;2.88;;;13.00;99.90;;;;;;5030837;28;20232;-72
2022/09/04 02:22:43;;;;;;;3.03;2.83;;;13.00;99.90;;;;;;5027568;28;20188;-72
2022/09/04 02:25:20;;;;;;;3.60;3.35;;;13.00;99.90;;;;;;5038873;28;20180;-72
2022/09/04 02:28:24;;;;;;;4.18;3.83;;;13.00;99.90;;;;;;5021530;28;20268;-72
2022/09/04 02:31:13;;;;;;;3.92;2.85;;;13.10;99.90;;;;;;5030997;28;20188;-72
2022/09/04 02:33:48;;;;;;;3.63;3.42;;;13.00;99.90;;;;;;5028466;28;20188;-72
2022/09/04 02:36:37;;;;;;;3.58;3.28;;;13.10;99.90;;;;;;5042587;28;20179;-76
2022/09/04 02:39:44;;;;;;;3.47;3.10;;;13.00;99.90;;;;;;5032553;28;20219;-72
2022/09/04 02:42:31;;;;;;;4.35;3.97;;;13.10;99.90;;;;;;5034857;28;20277;-72
2022/09/04 02:45:03;;;;;;;3.47;3.17;;;13.00;99.90;;;;;;5038945;28;20266;-73
2022/09/04 02:47:47;;;;;;;3.45;3.25;;;13.10;99.90;;;;;;5033920;28;20173;-72
2022/09/04 02:50:37;;;;;;;3.75;3.45;;;13.10;99.90;;;;;;5047945;28;20307;-74
2022/09/04 02:53:40;;;;;;;3.67;3.38;;;13.00;99.90;;;;;;5034033;28;20199;-74
2022/09/04 02:56:12;;;;;;;3.50;3.20;;;13.10;99.90;;;;;;5034916;28;20677;-73
2022/09/04 02:58:48;;;;;;;3.92;3.20;;;13.10;99.90;;;;;;5028988;28;20216;-73
2022/09/04 03:01:32;;;;;;;4.07;3.78;;;13.10;99.90;;;;;;5035584;28;20172;-74
2022/09/04 03:04:01;;;;;;;3.67;3.47;;;13.10;99.90;;;;;;5035503;28;20260;-74
2022/09/04 03:06:44;;;;;;;3.42;3.22;;;13.10;99.90;;;;;;5036185;28;20639;-73
2022/09/04 03:09:31;;;;;;;4.25;3.95;;;13.10;99.90;;;;;;5033926;28;20284;-73
2022/09/04 03:12:08;;;;;;;3.70;3.50;;;13.00;99.90;;;;;;5038175;28;20246;-74
2022/09/04 03:14:43;;;;;;;4.38;3.97;;;13.00;99.90;;;;;;5030340;28;20285;-74
2022/09/04 03:17:24;;;;;;;3.70;3.40;;;12.90;99.90;;;;;;5031514;28;20184;-74
2022/09/04 03:20:16;;;;;;;4.97;3.88;;;13.00;99.90;;;;;;5036261;28;20304;-79
2022/09/04 03:22:54;;;;;;;4.28;3.95;;;13.00;99.90;;;;;;5037673;28;20196;-74
2022/09/04 03:25:35;;;;;;;6.95;4.20;;;13.00;99.90;;;;;;5030626;28;20781;-74
2022/09/04 03:28:01;;;;;;;4.43;4.03;;;13.00;99.90;;;;;;5038568;28;20179;-73
2022/09/04 03:30:28;;;;;;;4.65;4.25;;;13.00;99.90;;;;;;5034835;28;20742;-73
2022/09/04 03:33:07;;;;;;;6.25;5.72;;;12.90;99.90;;;;;;5032631;28;20199;-73
2022/09/04 03:36:11;;;;;;;5.85;5.28;;;13.00;99.90;;;;;;5031988;28;20733;-73
2022/09/04 03:38:48;;;;;;;13.80;7.93;;;13.00;99.90;;;;;;5033996;28;20471;-73
2022/09/04 03:41:29;;;;;;;10.93;8.07;;;13.10;99.90;;;;;;5032346;28;20255;-73
2022/09/04 03:44:12;;;;;;;8.00;6.90;;;13.10;99.90;;;;;;5027274;28;20205;-73
2022/09/04 03:47:02;;;;;;;8.45;7.40;;;13.20;99.90;;;;;;5033096;28;20283;-73
2022/09/04 03:49:50;;;;;;;8.95;7.97;;;13.20;99.90;;;;;;5032863;28;20366;-73
2022/09/04 03:52:44;;;;;;;9.50;8.25;;;13.20;99.90;;;;;;5032483;28;20219;-74
2022/09/04 03:55:32;;;;;;;13.90;9.00;;;13.20;99.90;;;;;;5019271;28;20204;-74
2022/09/04 03:58:16;;;;;;;9.40;8.50;;;13.20;99.90;;;;;;5027418;28;20226;-73
2022/09/04 04:00:58;;;;;;;10.13;9.13;;;13.20;99.90;;;;;;5032501;28;20199;-73
2022/09/04 04:03:46;;;;;;;8.68;7.68;;;13.20;99.90;;;;;;5026779;28;20616;-73
2022/09/04 04:06:34;;;;;;;9.07;8.02;;;13.20;99.90;;;;;;5029799;28;20223;-74
2022/09/04 04:09:18;;;;;;;8.95;8.13;;;13.30;99.90;;;;;;5035586;28;20210;-73
2022/09/04 04:12:12;;;;;;;8.73;7.75;;;13.30;99.90;;;;;;5030072;28;20188;-73
2022/09/04 04:15:00;;;;;;;8.45;6.88;;;13.40;99.90;;;;;;5017442;28;20200;-73
2022/09/04 04:17:36;;;;;;;11.05;8.07;;;13.40;99.90;;;;;;5029126;28;20447;-73
2022/09/04 04:20:23;;;;;;;8.95;8.05;;;13.50;99.90;;;;;;5035287;28;20234;-72
2022/09/04 04:23:04;;;;;;;7.95;7.25;;;13.50;99.90;;;;;;5029805;28;20204;-73
2022/09/04 04:26:00;;;;;;;8.23;7.43;;;13.50;99.90;;;;;;5028207;28;20192;-74
2022/09/04 04:28:46;;;;;;;13.80;8.55;;;13.50;99.90;;;;;;5027016;28;20209;-73
2022/09/04 04:31:43;;;;;;;8.80;7.93;;;13.50;99.90;;;;;;5023815;28;20746;-73
2022/09/04 04:34:28;;;;;;;22.10;8.50;;;13.60;99.90;;;;;;5028380;28;20181;-73
2022/09/04 04:37:17;;;;;;;20.10;8.02;;;13.70;99.90;;;;;;5027576;28;20656;-73
2022/09/04 04:39:57;;;;;;;16.90;8.63;;;13.70;99.90;;;;;;5036953;28;20211;-74
2022/09/04 04:42:46;;;;;;;8.88;7.72;;;13.60;99.90;;;;;;5031429;28;20179;-74
2022/09/04 04:45:53;;;;;;;16.38;7.85;;;13.60;99.90;;;;;;5038883;28;20173;-75
2022/09/04 04:48:31;;;;;;;8.68;7.88;;;13.60;99.90;;;;;;5027850;28;20203;-74
2022/09/04 04:51:21;;;;;;;7.88;7.15;;;13.50;99.90;;;;;;5024518;28;20211;-74
2022/09/04 04:53:52;;;;;;;7.38;6.68;;;13.60;99.90;;;;;;5028719;28;20255;-75
2022/09/04 04:56:38;;;;;;;6.20;5.60;;;13.60;99.90;;;;;;5029916;28;20188;-74
2022/09/04 04:59:22;;;;;;;6.72;6.13;;;13.60;99.90;;;;;;5027080;28;20200;-74
2022/09/04 05:02:24;;;;;;;17.95;5.82;;;13.70;99.90;;;;;;5028735;28;20179;-74
2022/09/04 05:05:12;;;;;;;6.18;5.53;;;13.70;99.90;;;;;;5032971;28;20647;-74
2022/09/04 05:08:02;;;;;;;6.50;5.88;;;13.70;99.90;;;;;;5024407;28;20180;-74
2022/09/04 05:10:51;;;;;;;7.30;6.57;;;13.80;99.90;;;;;;5021161;28;20720;-74
2022/09/04 05:13:31;;;;;;;6.78;6.22;;;13.90;99.90;;;;;;5029742;28;20181;-73
2022/09/04 05:16:10;;;;;;;6.70;6.10;;;13.90;99.90;;;;;;5033705;28;20176;-73
2022/09/04 05:19:05;;;;;;;6.30;5.80;;;13.90;99.90;;;;;;5021757;28;20222;-73
2022/09/04 05:21:38;;;;;;;5.90;5.50;;;14.00;99.90;;;;;;5059804;28;20199;-73
2022/09/04 05:24:21;;;;;;;5.75;5.32;;;14.10;99.90;;;;;;5029471;28;20173;-74
2022/09/04 05:27:06;;;;;;;6.10;5.60;;;14.20;99.90;;;;;;5033884;28;20559;-74
2022/09/04 05:29:38;;;;;;;6.20;5.80;;;14.30;99.90;;;;;;5019814;28;20231;-74
2022/09/04 05:32:30;;;;;;;5.60;5.20;;;14.40;99.90;;;;;;5024751;28;20184;-73
2022/09/04 05:35:15;;;;;;;5.10;4.80;;;14.60;99.90;;;;;;5024011;28;20674;-73
2022/09/04 05:38:01;;;;;;;5.15;4.75;;;14.80;99.90;;;;;;5030196;28;20219;-73
2022/09/04 05:40:51;;;;;;;5.00;4.60;;;15.00;99.90;;;;;;5032056;28;20277;-74
2022/09/04 05:43:41;;;;;;;5.03;4.70;;;15.20;99.90;;;;;;5028684;28;20180;-73
2022/09/04 05:46:15;;;;;;;4.43;4.13;;;15.40;99.90;;;;;;5031564;28;20268;-73
2022/09/04 05:48:59;;;;;;;4.28;3.97;;;15.70;99.90;;;;;;5025309;28;20555;-74
2022/09/04 05:51:33;;;;;;;5.45;5.05;;;15.90;99.90;;;;;;5026857;28;20181;-75
2022/09/04 05:54:23;;;;;;;4.93;4.63;;;16.00;99.90;;;;;;5030008;28;20503;-75
2022/09/04 05:56:54;;;;;;;4.93;4.63;;;15.90;99.90;;;;;;5025953;28;20526;-75
2022/09/04 05:59:35;;;;;;;4.75;4.45;;;16.10;99.90;;;;;;5019833;28;20216;-76
2022/09/04 06:02:28;;;;;;;4.72;4.43;;;16.20;99.90;;;;;;5025697;28;20619;-75
2022/09/04 06:05:05;;;;;;;4.50;4.20;;;16.30;99.90;;;;;;5025304;28;20674;-76
2022/09/04 06:07:56;;;;;;;5.75;5.35;;;16.40;99.90;;;;;;5020761;28;20184;-75
2022/09/04 06:10:40;;;;;;;4.80;4.50;;;16.50;99.90;;;;;;5029906;28;20208;-75
2022/09/04 06:13:20;;;;;;;5.05;4.65;;;16.40;99.90;;;;;;5038637;28;20187;-75
2022/09/04 06:16:18;;;;;;;5.57;5.15;;;16.40;99.90;;;;;;5037559;28;20188;-75
2022/09/04 06:18:50;;;;;;;5.10;4.80;;;16.50;99.90;;;;;;5034994;28;20204;-75
2022/09/04 06:21:53;;;;;;;5.30;4.90;;;16.50;99.90;;;;;;5034510;28;20226;-74
2022/09/04 06:24:50;;;;;;;5.43;5.03;;;16.70;99.90;;;;;;5027966;28;20358;-75
2022/09/04 06:27:37;;;;;;;5.38;4.93;;;16.90;99.90;;;;;;5030483;28;20223;-77
2022/09/04 06:30:11;;;;;;;5.50;5.07;;;17.10;99.90;;;;;;5023095;28;20211;-74
2022/09/04 06:33:09;;;;;;;5.00;4.60;;;17.40;99.90;;;;;;5029724;28;20702;-78
2022/09/04 06:35:50;;;;;;;4.95;4.65;;;17.60;99.90;;;;;;5026554;28;20189;-75
2022/09/04 06:38:35;;;;;;;5.82;5.32;;;17.70;99.90;;;;;;5034084;28;20205;-73
2022/09/04 06:41:22;;;;;;;5.20;4.80;;;17.90;99.90;;;;;;5027579;28;20180;-75
2022/09/04 06:43:54;;;;;;;4.90;4.60;;;18.10;99.90;;;;;;5030904;28;20181;-75
2022/09/04 06:46:45;;;;;;;4.45;4.13;;;18.20;99.90;;;;;;5029453;28;20674;-75
2022/09/04 06:49:29;;;;;;;4.57;4.28;;;18.30;99.90;;;;;;5030584;28;20247;-75
2022/09/04 06:52:20;;;;;;;5.53;5.13;;;18.30;99.90;;;;;;5027551;28;20208;-74
2022/09/04 06:55:12;;;;;;;5.18;4.88;;;18.30;99.90;;;;;;5030377;28;20189;-74
2022/09/04 06:58:08;;;;;;;5.20;4.80;;;18.30;99.90;;;;;;5022244;28;20712;-74
2022/09/04 07:00:44;;;;;;;5.07;4.78;;;18.40;99.90;;;;;;5034224;28;20547;-78
2022/09/04 07:03:30;;;;;;;4.25;4.00;;;18.60;99.90;;;;;;5026434;28;20188;-77
2022/09/04 07:06:28;;;;;;;4.75;4.45;;;18.70;99.90;;;;;;5041785;28;20742;-77
2022/09/04 07:09:17;;;;;;;5.72;5.22;;;18.80;99.90;;;;;;5040568;28;20228;-75
2022/09/04 07:12:00;;;;;;;5.82;5.43;;;18.90;99.90;;;;;;5037677;28;20678;-77
2022/09/04 07:14:51;;;;;;;5.85;5.45;;;18.90;99.90;;;;;;5034705;28;20215;-76
2022/09/04 07:17:22;;;;;;;5.72;5.32;;;19.10;99.90;;;;;;5031900;28;20175;-76
2022/09/04 07:20:10;;;;;;;5.45;5.05;;;19.30;99.90;;;;;;5040721;28;20208;-76
2022/09/04 07:23:13;;;;;;;5.10;4.72;;;19.60;99.90;;;;;;5030137;28;20181;-76
2022/09/04 07:25:43;;;;;;;5.18;4.68;;;19.90;99.90;;;;;;5032385;28;20183;-76
2022/09/04 07:28:39;;;;;;;5.97;5.40;;;20.20;99.90;;;;;;5038134;28;20185;-76
2022/09/04 07:31:16;;;;;;;5.40;5.00;;;20.40;99.90;;;;;;5035398;28;20902;-76
2022/09/04 07:33:50;;;;;;;4.68;4.38;;;20.50;99.90;;;;;;5034606;28;20180;-76
2022/09/04 07:36:58;;;;;;;4.75;4.45;;;20.40;99.90;;;;;;5029438;28;20545;-76
2022/09/04 07:39:53;;;;;;;4.43;4.03;;;20.30;99.90;;;;;;5025721;28;20294;-76
2022/09/04 07:42:37;;;;;;;5.00;4.50;;;20.10;99.90;;;;;;5027150;28;20189;-76
2022/09/04 07:45:11;;;;;;;4.75;4.43;;;20.30;99.90;;;;;;5031141;28;20270;-76
2022/09/04 07:47:45;;;;;;;4.72;4.43;;;20.30;99.90;;;;;;5031208;28;20173;-76
2022/09/04 07:50:22;;;;;;;4.22;3.92;;;20.50;99.90;;;;;;5029198;28;20228;-76
2022/09/04 07:53:07;;;;;;;4.45;4.13;;;20.70;99.90;;;;;;5031278;28;20230;-76
2022/09/04 07:55:45;;;;;;;4.82;4.32;;;21.10;99.90;;;;;;5032228;28;20227;-76
2022/09/04 07:58:49;;;;;;;4.40;4.10;;;21.50;99.90;;;;;;5029953;28;20207;-75
2022/09/04 08:01:26;;;;;;;4.72;4.13;;;21.60;99.90;;;;;;5032653;28;20199;-76
2022/09/04 08:04:14;;;;;;;4.25;3.95;;;21.60;99.90;;;;;;5037993;28;20670;-75
2022/09/04 08:06:57;;;;;;;4.00;3.70;;;22.10;99.90;;;;;;5031859;28;20665;-76
2022/09/04 08:09:56;;;;;;;4.30;4.00;;;22.50;99.90;;;;;;5029451;28;20282;-76
2022/09/04 08:12:41;;;;;;;3.40;3.20;;;22.90;99.90;;;;;;5029164;28;20201;-74
2022/09/04 08:15:14;;;;;;;4.07;3.53;;;23.20;99.90;;;;;;5029723;28;20192;-73
2022/09/04 08:17:58;;;;;;;4.20;3.80;;;23.20;99.90;;;;;;5027684;28;20581;-73
2022/09/04 08:20:38;;;;;;;3.60;3.30;;;23.10;99.90;;;;;;5028565;28;20254;-74
2022/09/04 08:23:23;;;;;;;3.42;3.20;;;22.90;99.90;;;;;;5034553;28;20185;-73
2022/09/04 08:26:10;;;;;;;3.33;3.10;;;22.80;99.90;;;;;;5025406;28;20195;-72
2022/09/04 08:28:55;;;;;;;3.28;3.10;;;22.60;99.90;;;;;;5028132;28;20197;-72
2022/09/04 08:31:32;;;;;;;3.38;3.08;;;22.30;99.90;;;;;;5032422;28;20275;-73
2022/09/04 08:34:07;;;;;;;3.15;2.95;;;22.30;99.90;;;;;;5030650;28;20172;-74
2022/09/04 08:36:41;;;;;;;3.42;3.22;;;22.60;99.90;;;;;;5033503;28;20180;-71
2022/09/04 08:39:27;;;;;;;3.55;3.25;;;22.80;99.90;;;;;;5031946;28;20214;-74
2022/09/04 08:42:34;;;;;;;3.03;2.83;;;23.30;99.90;;;;;;5032403;28;20172;-71
2022/09/04 08:45:35;;;;;;;3.50;3.20;;;23.50;99.90;;;;;;5036141;28;20195;-73
2022/09/04 08:48:24;;;;;;;3.20;2.90;;;23.60;99.90;;;;;;5029352;28;20478;-74
2022/09/04 08:50:58;;;;;;;2.45;2.35;;;23.40;99.90;;;;;;5031468;28;20180;-73
2022/09/04 08:53:27;;;;;;;3.00;2.90;;;23.20;99.90;;;;;;5024818;28;20224;-73
2022/09/04 08:56:07;;;;;;;3.28;3.00;;;22.90;99.90;;;;;;5028686;28;20674;-74
2022/09/04 08:59:08;;;;;;;2.90;2.70;;;22.60;99.90;;;;;;5027595;28;20220;-74
2022/09/04 09:02:02;;;;;;;3.20;3.00;;;22.50;99.90;;;;;;5022305;28;20247;-73
2022/09/04 09:04:53;;;;;;;3.38;3.17;;;22.80;99.90;;;;;;5027977;28;20216;-72
2022/09/04 09:07:59;;;;;;;3.05;2.85;;;24.00;99.90;;;;;;5032119;28;20311;-74
2022/09/04 09:11:01;;;;;;;2.78;2.67;;;25.50;99.90;;;;;;5022271;28;20208;-74
2022/09/04 09:13:48;;;;;;;3.20;2.90;;;27.90;99.90;;;;;;5029781;28;20190;-73
2022/09/04 09:16:32;;;;;;;3.10;2.80;;;30.00;95.30;;;;;;5033072;28;20250;-73
2022/09/04 09:19:18;;;;;;;3.22;2.90;;;31.80;87.90;;;;;;5036224;28;20208;-71
2022/09/04 09:22:15;;;;;;;3.47;2.95;;;33.00;79.00;;;;;;5031344;28;20268;-72
2022/09/04 09:24:56;;;;;;;2.55;2.42;;;33.90;71.60;;;;;;5027161;28;20180;-71
2022/09/04 09:27:49;;;;;;;3.60;2.85;;;34.90;67.80;;;;;;5034688;28;20310;-72
2022/09/04 09:30:24;;;;;;;3.00;2.80;;;35.70;63.90;;;;;;5030764;28;20704;-72
2022/09/04 09:33:28;;;;;;;2.75;2.55;;;36.60;59.70;;;;;;5031575;28;20202;-72
2022/09/04 09:36:23;;;;;;;2.92;2.63;;;37.10;58.60;;;;;;5036612;28;20542;-72
2022/09/04 09:39:08;;;;;;;2.75;2.65;;;37.90;56.20;;;;;;5031145;28;20219;-72
2022/09/04 09:42:00;;;;;;;2.33;2.22;;;37.90;55.00;;;;;;5018478;28;20169;-72
2022/09/04 09:44:55;;;;;;;2.35;2.17;;;38.50;53.40;;;;;;5025257;28;20228;-73
2022/09/04 09:47:58;;;;;;;5.53;2.72;;;38.20;54.60;;;;;;5025592;28;20207;-71
2022/09/04 09:51:01;;;;;;;3.00;2.80;;;38.00;53.80;;;;;;5027157;28;20207;-70
2022/09/04 09:53:59;;;;;;;2.92;2.65;;;38.20;53.60;;;;;;5027973;28;20260;-70
2022/09/04 09:57:10;;;;;;;2.47;2.25;;;38.90;52.40;;;;;;5029211;28;20210;-70
2022/09/04 10:00:03;;;;;;;2.67;2.40;;;39.10;52.10;;;;;;5027122;28;20223;-70
2022/09/04 10:02:51;;;;;;;2.38;2.28;;;39.60;51.00;;;;;;5026164;28;20671;-70
2022/09/04 10:05:37;;;;;;;2.38;2.17;;;39.90;49.50;;;;;;5026760;28;20175;-71
2022/09/04 10:08:21;;;;;;;2.63;2.42;;;40.40;49.00;;;;;;5030642;28;20227;-71
2022/09/04 10:11:05;;;;;;;2.10;2.00;;;40.00;49.40;;;;;;5030843;28;20901;-71
2022/09/04 10:13:55;;;;;;;2.50;2.30;;;39.30;50.70;;;;;;5026751;28;20226;-72
2022/09/04 10:16:43;;;;;;;2.20;2.10;;;39.50;50.20;;;;;;5026506;28;20226;-72
2022/09/04 10:19:52;;;;;;;2.25;2.15;;;40.00;50.00;;;;;;5026396;28;20203;-72
2022/09/04 10:22:36;;;;;;;2.35;2.25;;;39.80;49.90;;;;;;5031172;28;20254;-71
2022/09/04 10:25:36;;;;;;;2.47;2.30;;;40.50;48.40;;;;;;5027629;28;20792;-72
2022/09/04 10:28:27;;;;;;;2.00;1.90;;;40.50;48.80;;;;;;5025389;28;20187;-72
2022/09/04 10:31:17;;;;;;;3.05;2.20;;;40.60;48.20;;;;;;5027904;28;20196;-71
2022/09/04 10:33:58;;;;;;;2.10;2.00;;;40.60;48.40;;;;;;5027461;28;20574;-71
2022/09/04 10:36:44;;;;;;;1.85;1.75;;;40.70;48.30;;;;;;5029050;28;20187;-72
2022/09/04 10:42:55;;;;;;;2.85;1.70;;;41.00;47.30;;;;;;5027821;28;20192;-72
2022/09/04 10:45:29;;;;;;;2.13;1.92;;;41.40;46.90;;;;;;5022956;28;20199;-72
2022/09/04 10:48:21;;;;;;;2.03;1.92;;;41.90;46.60;;;;;;5024175;28;20183;-71
2022/09/04 10:51:33;;;;;;;1.83;1.73;;;42.20;46.00;;;;;;5024824;28;20717;-72
2022/09/04 10:54:17;;;;;;;1.52;1.50;;;42.40;45.30;;;;;;5029931;28;20179;-72
2022/09/04 10:57:09;;;;;;;1.20;1.20;;;42.70;43.90;;;;;;5032525;28;20186;-71
2022/09/04 11:00:06;;;;;;;1.70;1.60;;;42.00;44.90;;;;;;5031383;28;20265;-72
2022/09/04 11:02:31;;;;;;;1.35;1.30;;;41.40;45.10;;;;;;5034641;28;20705;-72
2022/09/04 11:05:31;;;;;;;1.77;1.67;;;40.80;45.70;;;;;;5032699;28;20179;-72
2022/09/04 11:08:18;;;;;;;1.90;1.80;;;38.60;48.20;;;;;;5032635;28;20182;-72
2022/09/04 11:11:16;;;;;;;1.67;1.52;;;37.90;50.60;;;;;;5032467;28;20542;-72
2022/09/04 11:14:09;;;;;;;2.85;1.83;;;39.10;49.60;;;;;;5026370;28;20263;-71
2022/09/04 11:16:44;;;;;;;1.17;1.17;;;40.60;47.50;;;;;;5024427;28;20339;-71
2022/09/04 11:19:46;;;;;;;1.48;1.40;;;41.50;46.00;;;;;;5032376;28;20238;-71
2022/09/04 11:22:56;;;;;;;1.00;1.00;;;42.70;43.40;;;;;;5039078;28;20168;-71
2022/09/04 11:25:43;;;;;;;1.20;1.20;;;43.90;41.80;;;;;;5042171;28;20192;-71
2022/09/04 11:28:27;;;;;;;1.38;1.27;;;43.80;42.00;;;;;;5031924;28;20179;-71
2022/09/04 11:31:06;;;;;;;2.05;1.20;;;44.20;41.50;;;;;;5032546;28;20199;-71
2022/09/04 11:33:50;;;;;;;1.10;1.10;;;43.90;41.50;;;;;;5034185;28;20263;-71
2022/09/04 11:36:42;;;;;;;0.90;0.90;;;44.00;41.10;;;;;;5030006;28;20534;-71
2022/09/04 11:39:35;;;;;;;0.82;0.82;;;44.50;40.60;;;;;;5028291;28;20598;-71
2022/09/04 11:42:35;;;;;;;0.90;0.90;;;45.10;39.10;;;;;;5027628;28;20178;-71
2022/09/04 11:45:19;;;;;;;1.30;0.98;;;44.60;39.10;;;;;;5036028;28;20171;-71
2022/09/04 11:48:19;;;;;;;0.80;0.80;;;44.40;39.70;;;;;;5031163;28;20650;-71
2022/09/04 11:51:16;;;;;;;1.33;0.98;;;43.80;40.00;;;;;;5035044;28;20678;-72
2022/09/04 11:54:10;;;;;;;1.10;1.10;;;44.20;40.30;;;;;;5032200;28;20263;-71
2022/09/04 11:57:17;;;;;;;0.77;0.77;;;44.30;39.70;;;;;;5031155;28;20172;-71
2022/09/04 12:00:05;;;;;;;2.65;1.00;;;44.60;39.40;;;;;;5047619;28;20756;-71
2022/09/04 12:02:34;;;;;;;1.15;0.82;;;44.60;39.50;;;;;;5031897;28;20196;-72
2022/09/04 12:05:37;;;;;;;0.80;0.80;;;44.60;39.80;;;;;;5033856;28;20651;-71
2022/09/04 12:08:48;;;;;;;0.82;0.82;;;45.70;38.40;;;;;;5031142;28;20211;-71
2022/09/04 12:11:55;;;;;;;0.77;0.77;;;45.50;38.70;;;;;;5030151;28;20172;-71
2022/09/04 12:14:29;;;;;;;1.00;1.00;;;44.90;38.20;;;;;;5033193;28;20606;-72
2022/09/04 12:17:32;;;;;;;0.90;0.90;;;43.60;40.10;;;;;;5029897;28;20191;-72
2022/09/04 12:20:13;;;;;;;0.75;0.75;;;42.10;41.60;;;;;;5021152;28;20227;-73
2022/09/04 12:23:11;;;;;;;1.02;1.02;;;42.30;41.00;;;;;;5029819;28;21531;-72
2022/09/04 12:26:16;;;;;;;1.58;0.88;;;41.60;41.50;;;;;;5033437;28;20262;-72
2022/09/04 12:28:58;;;;;;;0.90;0.90;;;39.50;44.50;;;;;;5030424;28;20619;-72
2022/09/04 12:31:50;;;;;;;1.08;0.90;;;39.60;44.40;;;;;;5027511;28;20181;-73
2022/09/04 12:34:48;;;;;;;1.13;0.93;;;39.90;44.10;;;;;;5030692;28;20172;-73
2022/09/04 12:37:42;;;;;;;0.90;0.90;;;40.30;43.90;;;;;;5029270;28;20230;-73
2022/09/04 12:40:28;;;;;;;1.45;0.85;;;41.00;42.60;;;;;;5030838;28;20564;-72
2022/09/04 12:43:20;;;;;;;0.90;0.90;;;41.20;42.10;;;;;;5035166;28;20199;-74
2022/09/04 12:46:04;;;;;;;0.80;0.80;;;40.90;42.90;;;;;;5033298;28;20259;-71
2022/09/04 12:49:15;;;;;;;1.00;1.00;;;41.30;42.40;;;;;;5032236;28;20609;-71
2022/09/04 12:52:07;;;;;;;0.88;0.88;;;42.00;41.70;;;;;;5028788;28;20183;-72
2022/09/04 12:54:49;;;;;;;0.70;0.70;;;41.50;41.60;;;;;;5026157;28;20273;-72
2022/09/04 12:57:55;;;;;;;1.00;1.00;;;40.70;42.40;;;;;;5037864;28;20210;-72
2022/09/04 13:00:25;;;;;;;0.85;0.85;;;40.00;43.40;;;;;;5023909;28;20257;-72
2022/09/04 13:03:09;;;;;;;1.25;0.90;;;39.60;44.00;;;;;;5030841;28;20683;-71
2022/09/04 13:06:05;;;;;;;1.85;0.90;;;40.10;44.00;;;;;;5034161;28;20262;-72
2022/09/04 13:08:54;;;;;;;0.77;0.77;;;39.40;44.60;;;;;;5021497;28;20626;-72
2022/09/04 13:12:06;;;;;;;0.95;0.95;;;38.30;46.30;;;;;;5030580;28;20211;-72
2022/09/04 13:14:48;;;;;;;0.65;0.65;;;37.30;47.00;;;;;;5028003;28;20258;-72
2022/09/04 13:17:51;;;;;;;1.10;1.10;;;37.90;46.30;;;;;;5029283;28;20274;-72
2022/09/04 13:20:33;;;;;;;0.95;0.95;;;38.40;46.10;;;;;;5031102;28;20317;-72
2022/09/04 13:23:07;;;;;;;1.02;0.90;;;38.10;46.20;;;;;;5029323;28;20163;-72
2022/09/04 13:25:53;;;;;;;0.98;0.98;;;39.00;46.00;;;;;;5027753;28;20538;-72
2022/09/04 13:28:56;;;;;;;0.70;0.65;;;40.30;45.10;;;;;;5028919;28;20266;-72
2022/09/04 13:31:49;;;;;;;0.90;0.90;;;41.50;43.70;;;;;;5027832;28;20670;-72
2022/09/04 13:34:42;;;;;;;0.85;0.85;;;40.70;42.60;;;;;;5027888;28;21533;-72
2022/09/04 13:37:08;;;;;;;0.70;0.70;;;39.20;44.70;;;;;;5030664;28;20180;-72
2022/09/04 13:39:43;;;;;;;0.80;0.80;;;40.00;44.90;;;;;;5028195;28;20214;-72
2022/09/04 13:42:36;;;;;;;0.80;0.70;;;40.90;43.20;;;;;;5027999;28;20572;-72
2022/09/04 13:45:07;;;;;;;0.80;0.80;;;40.60;43.30;;;;;;5026384;28;20187;-72
2022/09/04 13:47:53;;;;;;;1.00;1.00;;;42.40;42.60;;;;;;5027718;28;20165;-72
2022/09/04 13:50:23;;;;;;;0.65;0.65;;;44.60;40.90;;;;;;5036631;28;20230;-74
2022/09/04 13:52:53;;;;;;;0.85;0.85;;;46.00;38.20;;;;;;5021029;28;20743;-74
2022/09/04 13:55:22;;;;;;;1.55;0.77;;;44.50;38.90;;;;;;5033869;28;20193;-73
2022/09/04 13:57:56;;;;;;;0.93;0.90;;;43.60;39.60;;;;;;5034632;28;20670;-73
2022/09/04 14:00:27;;;;;;;0.52;0.52;;;43.20;40.10;;;;;;5025922;28;20227;-73
2022/09/04 14:03:02;;;;;;;0.77;0.77;;;42.20;40.90;;;;;;5032940;28;20167;-72
2022/09/04 14:05:31;;;;;;;1.00;1.00;;;40.80;41.90;;;;;;5033464;28;20199;-71
2022/09/04 14:08:07;;;;;;;1.05;1.05;;;39.50;43.20;;;;;;5031504;28;20233;-73
2022/09/04 14:10:51;;;;;;;1.35;0.80;;;38.20;45.70;;;;;;5032196;28;20666;-72
2022/09/04 14:13:54;;;;;;;0.88;0.88;;;36.70;47.20;;;;;;5023101;28;20699;-73
2022/09/04 14:16:22;;;;;;;0.77;0.77;;;35.60;48.50;;;;;;5024781;28;20211;-71
2022/09/04 14:18:51;;;;;;;0.98;0.98;;;34.90;50.00;;;;;;5031793;28;20690;-72
2022/09/04 14:21:51;;;;;;;1.10;1.10;;;34.40;50.30;;;;;;5026606;28;20183;-72
2022/09/04 14:24:31;;;;;;;1.13;1.13;;;33.70;52.20;;;;;;5028408;28;20722;-72
2022/09/04 14:27:12;;;;;;;1.38;1.35;;;33.20;52.80;;;;;;5027127;28;20179;-72
2022/09/04 14:29:57;;;;;;;1.27;1.15;;;32.60;54.00;;;;;;5026288;28;20192;-72